»·PEaware :: SWA4650 KLAS-KRNO

SWA4650 :: KLAS-KRNO

FLIGHT INFORMATION

Flight Status: Arrived
Operator:
Southwest Airlines
More flights by this operator :: More flights under this callsign
Pilot: Ben F. (2808)
Aircraft: BOEING 737-800
(B738)
More flights by this aircraft type
Origin: KLAS McCarran Intl
United States
Destination: KRNO Reno/Tahoe Intl
United States
More flights between these airports :: More routes between these airports
Route: SHEAD1 KENNO KENNO2
File this flight plan on PilotEdge
Remarks:
Altitude:
(Current/Filed)
34,000ft
Speed:
(Current/Filed)
455kts
Departed: 02-Feb-19 10:08 AM
Arrived: 02-Feb-19 11:04 AM
Distance/Time
Traveled:
300nm/0:56
Distance/Time
To Go:
Arrived

Flight Plot

Page will automatically refresh every two minutes.

Flight plan parsing failed; only flown route is shown


Map Options




Map Legend


Flown Route
Filed Route
Departure Airport
Arrival Airport
Navaid (VOR, NDB)
Fix

Horizontal Profiles

Position Reports

Time Latitude Longitude Heading Altitude Ground
Speed
02-Feb-19 09:45 36.079559 -115.146220 355 2189ft 0kts
02-Feb-19 09:46 36.079559 -115.146220 355 2189ft 0kts
02-Feb-19 09:47 36.079559 -115.146220 355 2189ft 0kts
02-Feb-19 09:48 36.079559 -115.146220 355 2189ft 0kts
02-Feb-19 09:49 36.079559 -115.146220 355 2189ft 0kts
02-Feb-19 09:50 36.079559 -115.146220 355 2189ft 0kts
02-Feb-19 09:51 36.079559 -115.146220 355 2189ft 0kts
02-Feb-19 09:52 36.079559 -115.146220 355 2189ft 0kts
02-Feb-19 09:53 36.079559 -115.146220 355 2189ft 0kts
02-Feb-19 09:54 36.079559 -115.146220 355 2189ft 0kts
02-Feb-19 09:55 36.079559 -115.146220 355 2189ft 0kts
02-Feb-19 09:56 36.079410 -115.146204 355 2189ft 2kts
02-Feb-19 09:57 36.079003 -115.146307 31 2189ft 0kts
02-Feb-19 09:58 36.079003 -115.146307 31 2189ft 0kts
02-Feb-19 09:59 36.079361 -115.145643 69 2188ft 1kts
02-Feb-19 10:00 36.078990 -115.144877 176 2189ft 0kts
02-Feb-19 10:01 36.078989 -115.144877 176 2189ft 0kts
02-Feb-19 10:03 36.077601 -115.144138 104 2189ft 14kts
02-Feb-19 10:04 36.077516 -115.136442 87 2189ft 21kts
02-Feb-19 10:05 36.077541 -115.128082 90 2189ft 21kts
02-Feb-19 10:06 36.077565 -115.122210 89 2189ft 14kts
02-Feb-19 10:07 36.076434 -115.122247 270 2189ft 20kts
02-Feb-19 10:08 36.077380 -115.164059 273 3036ft 175kts
02-Feb-19 10:09 36.076593 -115.230010 263 4885ft 232kts
02-Feb-19 10:10 36.023909 -115.278244 194 6820ft 265kts
02-Feb-19 10:11 35.957621 -115.318597 218 7612ft 272kts
02-Feb-19 10:12 35.902878 -115.384342 222 9007ft 276kts
02-Feb-19 10:13 35.887084 -115.478761 265 10769ft 305kts
02-Feb-19 10:14 35.889398 -115.593225 266 11001ft 346kts
02-Feb-19 10:15 35.891706 -115.711990 265 12876ft 339kts
02-Feb-19 10:16 35.893640 -115.830892 264 15598ft 353kts
02-Feb-19 10:17 35.900201 -115.953995 283 18211ft 379kts
02-Feb-19 10:18 35.972117 -116.057585 308 20667ft 410kts
02-Feb-19 10:19 36.056247 -116.155612 307 22786ft 419kts
02-Feb-19 10:20 36.141762 -116.254857 307 22920ft 421kts
02-Feb-19 10:20 36.213705 -116.337869 307 23805ft 424kts
02-Feb-19 10:22 36.315655 -116.456048 306 25699ft 437kts
02-Feb-19 10:23 36.404979 -116.560449 306 27075ft 448kts
02-Feb-19 10:23 36.481321 -116.649736 306 28155ft 456kts
02-Feb-19 10:24 36.576900 -116.756190 314 29675ft 468kts
02-Feb-19 10:26 36.707387 -116.856977 317 31436ft 472kts
02-Feb-19 10:26 36.800505 -116.927948 317 32641ft 469kts
02-Feb-19 10:27 36.911525 -117.012640 317 33863ft 469kts
02-Feb-19 10:28 37.022873 -117.097860 317 33871ft 467kts
02-Feb-19 10:29 37.133783 -117.182992 316 33834ft 468kts
02-Feb-19 10:30 37.244952 -117.268975 316 33818ft 470kts
02-Feb-19 10:31 37.348871 -117.363778 307 33809ft 455kts
02-Feb-19 10:32 37.445449 -117.467619 307 33783ft 457kts
02-Feb-19 10:33 37.549365 -117.563867 316 33773ft 474kts
02-Feb-19 10:34 37.661086 -117.652250 315 33776ft 475kts
02-Feb-19 10:35 37.773120 -117.741418 315 33775ft 475kts
02-Feb-19 10:36 37.885672 -117.830867 315 33770ft 477kts
02-Feb-19 10:37 37.997900 -117.920615 315 33763ft 477kts
02-Feb-19 10:38 38.110188 -118.010814 315 33748ft 477kts
02-Feb-19 10:39 38.222299 -118.101001 315 33733ft 477kts
02-Feb-19 10:40 38.334272 -118.191770 315 33711ft 478kts
02-Feb-19 10:41 38.441182 -118.288290 304 32388ft 455kts
02-Feb-19 10:42 38.531417 -118.400008 303 30072ft 446kts
02-Feb-19 10:43 38.619132 -118.508772 303 28181ft 433kts
02-Feb-19 10:44 38.704710 -118.615348 304 26326ft 426kts
02-Feb-19 10:45 38.790544 -118.722239 306 23866ft 436kts
02-Feb-19 10:46 38.875368 -118.827670 307 22514ft 418kts
02-Feb-19 10:47 38.958676 -118.931847 307 20637ft 417kts
02-Feb-19 10:48 39.041222 -119.035689 307 18747ft 415kts
02-Feb-19 10:49 39.122421 -119.137924 308 17263ft 400kts
02-Feb-19 10:50 39.200374 -119.236467 308 15895ft 380kts
02-Feb-19 10:51 39.275760 -119.331698 309 14192ft 374kts
02-Feb-19 10:52 39.344578 -119.419100 309 13407ft 329kts
02-Feb-19 10:53 39.414477 -119.487174 318 12745ft 290kts
02-Feb-19 10:54 39.478172 -119.546521 318 11300ft 288kts
02-Feb-19 10:55 39.554753 -119.584851 344 9519ft 292kts
02-Feb-19 10:56 39.628391 -119.611899 344 8994ft 255kts
02-Feb-19 10:57 39.695090 -119.640165 322 8976ft 258kts
02-Feb-19 10:58 39.698575 -119.722030 256 8090ft 237kts
02-Feb-19 10:59 39.661228 -119.769006 181 7361ft 191kts
02-Feb-19 11:00 39.609358 -119.768995 178 6397ft 183kts
02-Feb-19 11:01 39.561727 -119.769102 180 5450ft 161kts
02-Feb-19 11:02 39.516077 -119.769130 185 4560ft 169kts
02-Feb-19 11:03 39.492798 -119.770258 250 4423ft 2kts
02-Feb-19 11:04 39.495050 -119.770714 359 4423ft 28kts
02-Feb-19 11:05 39.502109 -119.770679 0 4423ft 23kts
02-Feb-19 11:06 39.503831 -119.772635 319 4423ft 4kts
02-Feb-19 11:07 39.504406 -119.772784 355 4423ft 0kts

Navigation Log

Ident Type
Flight plan parsing failed, navigation log unavailable